sensor_id;sensor_type;location;lat;lon;timestamp;P1;durP1;ratioP1;P2;durP2;ratioP2
69588;SDS011;56792;50.644;17.984;2022-12-18T09:58:43;24.40;;;9.90;;
69588;SDS011;56792;50.644;17.984;2022-12-18T10:01:24;25.10;;;10.40;;
69588;SDS011;56792;50.644;17.984;2022-12-18T10:04:01;28.40;;;12.10;;
69588;SDS011;56792;50.644;17.984;2022-12-18T10:06:41;29.40;;;11.10;;
69588;SDS011;56792;50.644;17.984;2022-12-18T10:09:27;29.40;;;13.40;;
69588;SDS011;56792;50.644;17.984;2022-12-18T10:12:08;26.70;;;12.00;;
69588;SDS011;56792;50.644;17.984;2022-12-18T10:14:56;23.30;;;9.00;;
69588;SDS011;56792;50.644;17.984;2022-12-18T10:17:41;23.50;;;8.90;;
69588;SDS011;56792;50.644;17.984;2022-12-18T10:20:27;19.00;;;7.70;;
69588;SDS011;56792;50.644;17.984;2022-12-18T10:23:11;17.00;;;7.00;;
69588;SDS011;56792;50.644;17.984;2022-12-18T10:25:58;17.10;;;7.60;;
69588;SDS011;56792;50.644;17.984;2022-12-18T10:28:38;20.50;;;7.40;;
69588;SDS011;56792;50.644;17.984;2022-12-18T10:31:20;21.40;;;9.30;;
69588;SDS011;56792;50.644;17.984;2022-12-18T10:33:58;19.00;;;7.60;;
69588;SDS011;56792;50.644;17.984;2022-12-18T10:39:19;25.60;;;9.10;;
69588;SDS011;56792;50.644;17.984;2022-12-18T10:41:53;25.70;;;9.10;;
69588;SDS011;56792;50.644;17.984;2022-12-18T10:45:03;27.30;;;10.40;;
69588;SDS011;56792;50.644;17.984;2022-12-18T10:47:44;25.70;;;10.50;;
69588;SDS011;56792;50.644;17.984;2022-12-18T10:50:26;33.20;;;12.60;;
69588;SDS011;56792;50.644;17.984;2022-12-18T10:53:02;27.60;;;10.30;;
69588;SDS011;56792;50.644;17.984;2022-12-18T10:55:38;37.80;;;13.50;;
69588;SDS011;56792;50.644;17.984;2022-12-18T10:58:26;39.70;;;15.20;;
69588;SDS011;56792;50.644;17.984;2022-12-18T11:01:10;41.30;;;14.60;;
69588;SDS011;56792;50.644;17.984;2022-12-18T11:04:01;37.90;;;15.20;;
69588;SDS011;56792;50.644;17.984;2022-12-18T11:06:58;35.70;;;12.90;;
69588;SDS011;56792;50.644;17.984;2022-12-18T11:09:33;28.20;;;11.70;;
69588;SDS011;56792;50.644;17.984;2022-12-18T11:12:16;35.50;;;14.90;;
69588;SDS011;56792;50.644;17.984;2022-12-18T11:14:53;30.30;;;13.00;;
69588;SDS011;56792;50.644;17.984;2022-12-18T11:17:31;42.20;;;16.20;;
69588;SDS011;56792;50.644;17.984;2022-12-18T11:20:14;36.70;;;14.70;;
69588;SDS011;56792;50.644;17.984;2022-12-18T11:23:05;39.90;;;14.60;;
69588;SDS011;56792;50.644;17.984;2022-12-18T11:25:53;36.90;;;15.00;;
69588;SDS011;56792;50.644;17.984;2022-12-18T11:28:34;40.90;;;15.50;;
69588;SDS011;56792;50.644;17.984;2022-12-18T11:31:25;39.00;;;15.10;;
69588;SDS011;56792;50.644;17.984;2022-12-18T11:34:04;38.70;;;15.30;;
69588;SDS011;56792;50.644;17.984;2022-12-18T11:36:47;30.80;;;11.30;;
69588;SDS011;56792;50.644;17.984;2022-12-18T11:39:28;35.50;;;14.10;;
69588;SDS011;56792;50.644;17.984;2022-12-18T11:42:12;31.30;;;11.00;;
69588;SDS011;56792;50.644;17.984;2022-12-18T11:44:53;29.70;;;11.10;;
69588;SDS011;56792;50.644;17.984;2022-12-18T11:47:34;30.70;;;11.10;;
69588;SDS011;56792;50.644;17.984;2022-12-18T11:50:17;31.90;;;10.80;;
69588;SDS011;56792;50.644;17.984;2022-12-18T19:16:31;111.40;;;24.10;;
69588;SDS011;56792;50.644;17.984;2022-12-18T19:19:09;121.70;;;30.00;;
69588;SDS011;56792;50.644;17.984;2022-12-18T19:21:49;131.10;;;31.10;;
69588;SDS011;56792;50.644;17.984;2022-12-18T19:24:29;120.10;;;31.00;;
69588;SDS011;56792;50.644;17.984;2022-12-18T19:27:05;137.80;;;33.40;;
69588;SDS011;56792;50.644;17.984;2022-12-18T19:29:50;123.40;;;28.60;;
69588;SDS011;56792;50.644;17.984;2022-12-18T19:32:32;99.10;;;28.00;;
69588;SDS011;56792;50.644;17.984;2022-12-18T19:35:13;100.90;;;24.10;;
69588;SDS011;56792;50.644;17.984;2022-12-18T19:37:53;120.30;;;30.00;;
69588;SDS011;56792;50.644;17.984;2022-12-18T19:40:42;97.00;;;25.80;;
69588;SDS011;56792;50.644;17.984;2022-12-18T19:43:20;99.00;;;26.40;;
69588;SDS011;56792;50.644;17.984;2022-12-18T19:45:57;88.10;;;25.40;;
69588;SDS011;56792;50.644;17.984;2022-12-18T19:48:33;71.50;;;21.30;;
69588;SDS011;56792;50.644;17.984;2022-12-18T19:51:10;82.60;;;22.70;;
69588;SDS011;56792;50.644;17.984;2022-12-18T19:53:48;65.40;;;19.70;;
69588;SDS011;56792;50.644;17.984;2022-12-18T19:56:30;68.70;;;20.60;;
69588;SDS011;56792;50.644;17.984;2022-12-18T19:59:11;64.30;;;21.90;;
69588;SDS011;56792;50.644;17.984;2022-12-18T20:01:56;74.00;;;23.00;;
69588;SDS011;56792;50.644;17.984;2022-12-18T20:04:39;83.90;;;24.60;;
69588;SDS011;56792;50.644;17.984;2022-12-18T20:07:19;79.60;;;24.50;;
69588;SDS011;56792;50.644;17.984;2022-12-18T20:09:56;80.50;;;23.40;;
69588;SDS011;56792;50.644;17.984;2022-12-18T20:12:34;72.00;;;22.80;;
69588;SDS011;56792;50.644;17.984;2022-12-18T20:15:18;81.70;;;24.70;;
69588;SDS011;56792;50.644;17.984;2022-12-18T20:18:00;76.10;;;23.40;;
69588;SDS011;56792;50.644;17.984;2022-12-18T20:20:40;75.00;;;23.50;;
69588;SDS011;56792;50.644;17.984;2022-12-18T20:23:21;87.50;;;24.30;;
69588;SDS011;56792;50.644;17.984;2022-12-18T20:25:57;63.90;;;22.40;;
69588;SDS011;56792;50.644;17.984;2022-12-18T20:28:41;70.00;;;25.40;;
69588;SDS011;56792;50.644;17.984;2022-12-18T20:31:25;79.20;;;23.00;;
69588;SDS011;56792;50.644;17.984;2022-12-18T20:34:13;76.90;;;24.50;;
69588;SDS011;56792;50.644;17.984;2022-12-18T20:36:49;64.80;;;21.90;;
69588;SDS011;56792;50.644;17.984;2022-12-18T20:39:29;62.50;;;21.40;;
69588;SDS011;56792;50.644;17.984;2022-12-18T20:42:08;69.30;;;23.80;;
69588;SDS011;56792;50.644;17.984;2022-12-18T20:44:45;70.30;;;24.00;;
69588;SDS011;56792;50.644;17.984;2022-12-18T20:47:21;68.90;;;24.20;;
69588;SDS011;56792;50.644;17.984;2022-12-18T20:50:00;69.10;;;23.80;;
69588;SDS011;56792;50.644;17.984;2022-12-18T20:52:55;70.90;;;22.50;;
69588;SDS011;56792;50.644;17.984;2022-12-18T20:55:42;66.40;;;20.70;;
69588;SDS011;56792;50.644;17.984;2022-12-18T20:58:30;66.70;;;21.30;;
69588;SDS011;56792;50.644;17.984;2022-12-18T21:01:20;62.30;;;20.30;;
69588;SDS011;56792;50.644;17.984;2022-12-18T21:04:13;48.70;;;17.40;;
69588;SDS011;56792;50.644;17.984;2022-12-18T21:06:51;50.90;;;15.90;;
69588;SDS011;56792;50.644;17.984;2022-12-18T21:09:30;46.90;;;15.70;;
69588;SDS011;56792;50.644;17.984;2022-12-18T21:12:20;55.40;;;18.30;;
69588;SDS011;56792;50.644;17.984;2022-12-18T21:15:16;50.60;;;17.20;;
69588;SDS011;56792;50.644;17.984;2022-12-18T21:18:03;58.00;;;21.60;;
69588;SDS011;56792;50.644;17.984;2022-12-18T21:20:38;61.30;;;18.20;;
69588;SDS011;56792;50.644;17.984;2022-12-18T21:23:13;89.80;;;28.30;;
69588;SDS011;56792;50.644;17.984;2022-12-18T21:25:49;96.00;;;26.70;;
69588;SDS011;56792;50.644;17.984;2022-12-18T21:28:26;77.90;;;27.90;;
69588;SDS011;56792;50.644;17.984;2022-12-18T21:31:09;99.70;;;28.40;;
69588;SDS011;56792;50.644;17.984;2022-12-18T21:33:45;71.90;;;21.60;;
69588;SDS011;56792;50.644;17.984;2022-12-18T21:36:27;91.50;;;26.20;;
69588;SDS011;56792;50.644;17.984;2022-12-18T21:39:14;92.40;;;26.20;;
69588;SDS011;56792;50.644;17.984;2022-12-18T21:42:00;101.10;;;29.80;;
69588;SDS011;56792;50.644;17.984;2022-12-18T21:44:58;75.50;;;25.50;;
69588;SDS011;56792;50.644;17.984;2022-12-18T21:47:33;103.80;;;29.90;;
69588;SDS011;56792;50.644;17.984;2022-12-18T21:50:08;101.20;;;31.20;;
69588;SDS011;56792;50.644;17.984;2022-12-18T21:52:48;97.20;;;31.20;;
69588;SDS011;56792;50.644;17.984;2022-12-18T21:55:25;85.20;;;27.00;;
69588;SDS011;56792;50.644;17.984;2022-12-18T21:58:01;77.60;;;26.20;;
69588;SDS011;56792;50.644;17.984;2022-12-18T22:00:40;85.10;;;28.10;;
69588;SDS011;56792;50.644;17.984;2022-12-18T22:03:14;86.60;;;26.90;;
69588;SDS011;56792;50.644;17.984;2022-12-18T22:05:47;72.80;;;22.30;;
69588;SDS011;56792;50.644;17.984;2022-12-18T22:08:21;79.20;;;25.40;;
69588;SDS011;56792;50.644;17.984;2022-12-18T22:14:59;82.50;;;26.50;;
69588;SDS011;56792;50.644;17.984;2022-12-18T22:17:34;98.80;;;28.00;;
69588;SDS011;56792;50.644;17.984;2022-12-18T22:20:08;91.70;;;29.00;;
69588;SDS011;56792;50.644;17.984;2022-12-18T22:22:42;98.30;;;32.20;;
69588;SDS011;56792;50.644;17.984;2022-12-18T22:25:16;64.40;;;21.70;;
69588;SDS011;56792;50.644;17.984;2022-12-18T22:27:49;60.60;;;21.80;;
69588;SDS011;56792;50.644;17.984;2022-12-18T22:30:45;88.50;;;29.20;;
69588;SDS011;56792;50.644;17.984;2022-12-18T22:33:19;88.50;;;29.20;;
69588;SDS011;56792;50.644;17.984;2022-12-18T22:35:53;86.10;;;27.50;;
69588;SDS011;56792;50.644;17.984;2022-12-18T22:38:26;87.70;;;25.70;;
69588;SDS011;56792;50.644;17.984;2022-12-18T22:40:59;87.90;;;25.70;;
69588;SDS011;56792;50.644;17.984;2022-12-18T22:43:31;118.20;;;35.70;;
69588;SDS011;56792;50.644;17.984;2022-12-18T22:46:05;106.20;;;33.10;;
69588;SDS011;56792;50.644;17.984;2022-12-18T22:48:40;110.00;;;35.40;;
69588;SDS011;56792;50.644;17.984;2022-12-18T22:51:15;98.50;;;32.10;;
69588;SDS011;56792;50.644;17.984;2022-12-18T22:53:49;105.10;;;33.20;;
69588;SDS011;56792;50.644;17.984;2022-12-18T22:56:21;105.00;;;32.20;;
69588;SDS011;56792;50.644;17.984;2022-12-18T22:58:54;120.70;;;34.50;;
69588;SDS011;56792;50.644;17.984;2022-12-18T23:01:28;115.00;;;37.20;;
69588;SDS011;56792;50.644;17.984;2022-12-18T23:04:01;107.10;;;32.10;;
69588;SDS011;56792;50.644;17.984;2022-12-18T23:06:34;117.40;;;32.70;;
69588;SDS011;56792;50.644;17.984;2022-12-18T23:09:08;97.00;;;30.20;;
69588;SDS011;56792;50.644;17.984;2022-12-18T23:11:46;89.60;;;25.90;;
69588;SDS011;56792;50.644;17.984;2022-12-18T23:14:19;76.40;;;23.50;;
69588;SDS011;56792;50.644;17.984;2022-12-18T23:16:52;64.50;;;18.10;;
69588;SDS011;56792;50.644;17.984;2022-12-18T23:19:24;59.60;;;16.70;;
69588;SDS011;56792;50.644;17.984;2022-12-18T23:21:59;53.30;;;16.60;;
69588;SDS011;56792;50.644;17.984;2022-12-18T23:24:32;45.10;;;15.30;;
69588;SDS011;56792;50.644;17.984;2022-12-18T23:27:04;45.40;;;13.50;;
69588;SDS011;56792;50.644;17.984;2022-12-18T23:29:38;37.40;;;13.40;;
69588;SDS011;56792;50.644;17.984;2022-12-18T23:32:11;46.50;;;14.30;;
69588;SDS011;56792;50.644;17.984;2022-12-18T23:34:44;44.70;;;15.00;;
69588;SDS011;56792;50.644;17.984;2022-12-18T23:37:16;57.50;;;16.10;;
69588;SDS011;56792;50.644;17.984;2022-12-18T23:39:49;48.20;;;12.60;;
69588;SDS011;56792;50.644;17.984;2022-12-18T23:42:21;32.20;;;10.80;;
69588;SDS011;56792;50.644;17.984;2022-12-18T23:44:53;37.50;;;13.00;;
69588;SDS011;56792;50.644;17.984;2022-12-18T23:47:26;43.80;;;14.00;;
69588;SDS011;56792;50.644;17.984;2022-12-18T23:49:59;41.50;;;12.90;;
69588;SDS011;56792;50.644;17.984;2022-12-18T23:52:32;39.40;;;13.20;;
69588;SDS011;56792;50.644;17.984;2022-12-18T23:55:05;49.40;;;13.90;;
69588;SDS011;56792;50.644;17.984;2022-12-18T23:57:38;43.00;;;14.10;;
